Time;durP1;ratioP1;P1;durP2;ratioP2;P2;SDS_P1;SDS_P2;PMS_P1;PMS_P2;Temp;Humidity;BMP_temperature;BMP_pressure;BME280_temperature;BME280_humidity;BME280_pressure;Samples;Min_cycle;Max_cycle;Signal;HPM_P1;HPM_P2
2022/05/29 00:00:00;;;;;;;8.15;2.90;;;;;;;7.45;90.83;101617.69;172713;28;851;-69
2022/05/29 00:00:07;;;;;;;8.37;2.97;;;;;;;7.43;90.64;101609.03;172719;28;827;-69
2022/05/29 00:00:13;;;;;;;9.62;3.10;;;;;;;7.42;91.39;101612.53;172689;28;1093;-69
2022/05/29 00:00:19;;;;;;;9.62;3.14;;;;;;;7.43;91.14;101609.03;172686;28;862;-69
2022/05/29 00:00:25;;;;;;;8.93;3.10;;;;;;;7.46;90.59;101609.00;172619;28;1101;-69
2022/05/29 00:00:30;;;;;;;8.55;3.13;;;;;;;7.46;90.90;101609.00;172592;28;955;-69
2022/05/29 00:00:36;;;;;;;9.73;3.20;;;;;;;7.47;90.81;101615.91;172606;28;974;-70
2022/05/29 00:00:41;;;;;;;8.88;3.22;;;;;;;7.50;90.54;101608.94;172576;28;931;-70
2022/05/29 00:00:47;;;;;;;9.00;3.30;;;;;;;7.47;90.88;101615.91;172616;28;1282;-69
2022/05/29 00:00:53;;;;;;;9.60;3.40;;;;;;;7.43;90.54;101606.44;172673;28;1021;-70
2022/05/29 00:00:58;;;;;;;9.50;3.40;;;;;;;7.43;91.13;101611.66;172698;28;852;-70
2022/05/29 00:01:04;;;;;;;8.13;3.30;;;;;;;7.44;90.37;101610.78;172676;28;1034;-70
2022/05/29 00:01:09;;;;;;;8.18;3.20;;;;;;;7.44;90.71;101610.78;172713;28;1016;-69
2022/05/29 00:01:15;;;;;;;8.30;3.17;;;;;;;7.42;90.95;101607.34;172713;28;895;-70
2022/05/29 00:01:20;;;;;;;7.57;3.13;;;;;;;7.41;91.36;101605.63;172699;28;1108;-69
2022/05/29 00:01:26;;;;;;;7.93;3.20;;;;;;;7.43;91.08;101611.66;172707;28;863;-69
2022/05/29 00:01:31;;;;;;;7.60;3.17;;;;;;;7.46;91.01;101605.56;172693;28;966;-69
2022/05/29 00:01:37;;;;;;;7.27;3.23;;;;;;;7.49;90.71;101612.44;172708;28;942;-69
2022/05/29 00:01:42;;;;;;;6.30;3.20;;;;;;;7.51;90.35;101610.66;172682;28;785;-69
2022/05/29 00:01:47;;;;;;;6.37;3.20;;;;;;;7.52;89.93;101608.03;172441;28;1034;-69
2022/05/29 00:01:53;;;;;;;5.63;3.17;;;;;;;7.55;89.70;101608.00;172064;28;914;-69
2022/05/29 00:01:59;;;;;;;5.60;3.13;;;;;;;7.56;89.51;101606.25;171926;28;1115;-69
2022/05/29 00:02:08;;;;;;;6.70;3.25;;;;;;;7.56;89.34;101609.69;171992;28;864;-69
2022/05/29 00:02:13;;;;;;;8.24;3.29;;;;;;;7.58;89.21;101607.06;172000;28;1044;-70
2022/05/29 00:02:19;;;;;;;8.93;3.20;;;;;;;7.60;89.64;101605.31;171937;28;848;-70
2022/05/29 00:02:24;;;;;;;9.23;3.10;;;;;;;7.60;89.32;101608.75;172043;28;1109;-70
2022/05/29 00:02:29;;;;;;;9.67;3.07;;;;;;;7.60;89.44;101605.31;172040;28;863;-69
2022/05/29 00:02:35;;;;;;;9.60;3.00;;;;;;;7.61;89.15;101604.44;171989;28;930;-69
2022/05/29 00:02:40;;;;;;;9.30;3.00;;;;;;;7.62;89.23;101608.72;171997;28;1038;-69
2022/05/29 00:02:48;;;;;;;9.98;3.15;;;;;;;7.62;89.17;101606.13;171998;28;947;-70
2022/05/29 00:02:53;;;;;;;10.66;3.34;;;;;;;7.63;89.38;101605.25;171274;28;1132;-69
2022/05/29 00:02:59;;;;;;;10.97;3.37;;;;;;;7.64;88.83;101614.78;171378;28;836;-69
2022/05/29 00:03:04;;;;;;;10.43;3.35;;;;;;;7.64;88.85;101608.72;171345;28;1286;-69
2022/05/29 00:03:09;;;;;;;9.90;3.33;;;;;;;7.64;88.60;101606.97;171352;28;805;-69
2022/05/29 00:03:15;;;;;;;9.25;3.20;;;;;;;7.64;89.24;101606.97;171342;28;998;-69
2022/05/29 00:03:21;;;;;;;8.53;3.10;;;;;;;7.64;88.92;101609.56;171351;28;824;-69
2022/05/29 00:03:26;;;;;;;7.68;3.10;;;;;;;7.64;88.67;101606.13;171424;28;852;-69
2022/05/29 00:03:31;;;;;;;7.35;3.20;;;;;;;7.63;88.89;101607.00;171335;28;1018;-70
2022/05/29 00:03:37;;;;;;;7.30;3.30;;;;;;;7.62;89.39;101608.72;171376;28;793;-70
2022/05/29 00:03:43;;;;;;;6.93;3.30;;;;;;;7.62;89.16;101608.72;171328;28;997;-69
2022/05/29 00:03:50;;;;;;;7.83;3.47;;;;;;;7.63;89.17;101610.44;171279;28;959;-70
2022/05/29 00:03:55;;;;;;;7.48;3.43;;;;;;;7.62;88.94;101606.13;170585;29;1642;-70
2022/05/29 00:04:01;;;;;;;7.00;3.20;;;;;;;7.63;89.12;101605.25;170700;29;832;-69
2022/05/29 00:04:06;;;;;;;6.97;3.20;;;;;;;7.64;89.07;101612.19;170677;29;936;-69
2022/05/29 00:04:12;;;;;;;7.82;3.20;;;;;;;7.65;89.08;101608.69;170654;29;1034;-70
2022/05/29 00:04:19;;;;;;;7.20;3.07;;;;;;;7.65;88.89;101607.81;170871;28;1034;-70
2022/05/29 00:04:25;;;;;;;7.98;3.00;;;;;;;7.64;88.94;101606.97;171328;28;975;-70
2022/05/29 00:04:30;;;;;;;8.70;3.13;;;;;;;7.62;88.71;101613.94;171316;28;1081;-69
2022/05/29 00:04:39;;;;;;;9.38;3.15;;;;;;;7.58;88.99;101607.94;171287;28;1244;-70
2022/05/29 00:04:44;;;;;;;9.38;3.07;;;;;;;7.52;90.42;101604.59;171347;28;1885;-70
2022/05/29 00:04:50;;;;;;;8.95;3.10;;;;;;;7.48;90.23;101611.56;171377;28;692;-70
2022/05/29 00:04:55;;;;;;;8.40;3.10;;;;;;;7.43;91.07;101609.03;170698;28;924;-69
2022/05/29 00:05:00;;;;;;;8.10;3.03;;;;;;;7.43;90.77;101609.03;171329;28;1038;-69
2022/05/29 00:05:09;;;;;;;7.60;3.10;;;;;;;7.45;90.19;101606.44;171340;28;1030;-70
2022/05/29 00:05:15;;;;;;;7.04;3.10;;;;;;;7.48;89.92;101606.38;171350;28;1234;-70
2022/05/29 00:05:21;;;;;;;6.60;3.10;;;;;;;7.44;90.44;101605.59;171373;28;983;-70
2022/05/29 00:05:26;;;;;;;7.97;3.20;;;;;;;7.43;90.34;101609.03;171386;28;1050;-70
2022/05/29 00:05:36;;;;;;;9.18;3.38;;;;;;;7.42;90.89;101609.94;171258;28;924;-69
2022/05/29 00:05:42;;;;;;;10.13;3.30;;;;;;;7.47;90.65;101609.88;171351;28;1058;-69
2022/05/29 00:05:49;;;;;;;9.90;3.30;;;;;;;7.49;89.83;101609.84;171334;28;978;-69
2022/05/29 00:05:55;;;;;;;8.43;3.00;;;;;;;7.50;90.28;101601.16;171747;28;876;-69
2022/05/29 00:06:05;;;;;;;7.88;2.97;;;;;;;7.52;89.62;101607.19;171932;28;947;-69
2022/05/29 00:06:12;;;;;;;7.66;3.06;;;;;;;7.48;90.16;101611.56;171998;28;1041;-70
2022/05/29 00:06:18;;;;;;;8.72;3.10;;;;;;;7.46;90.31;101602.97;171234;28;1128;-69
2022/05/29 00:06:24;;;;;;;9.00;3.20;;;;;;;7.45;90.38;101612.50;171316;28;880;-69
2022/05/29 00:06:39;;;;;;;9.73;3.30;;;;;;;7.44;91.11;101610.78;171382;28;982;-69
2022/05/29 00:06:48;;;;;;;10.52;3.47;;;;;;;7.44;90.53;101610.78;171345;28;1235;-69
2022/05/29 00:06:57;;;;;;;10.88;3.47;;;;;;;7.49;90.19;101609.84;171308;28;1163;-69
2022/05/29 00:07:04;;;;;;;11.01;3.44;;;;;;;7.51;90.21;101610.66;171359;28;1065;-69
2022/05/29 00:07:17;;;;;;;10.30;3.30;;;;;;;7.51;90.38;101605.47;171346;28;1086;-69
2022/05/29 00:07:23;;;;;;;10.09;3.31;;;;;;;7.46;90.09;101603.81;171306;28;1233;-70
2022/05/29 00:07:28;;;;;;;8.93;3.13;;;;;;;7.44;90.47;101608.19;171432;28;919;-70
2022/05/29 00:07:35;;;;;;;8.37;3.10;;;;;;;7.41;91.18;101603.03;172018;28;840;-70
2022/05/29 00:07:47;;;;;;;8.30;3.02;;;;;;;7.39;91.07;101607.38;171989;28;1197;-70
2022/05/29 00:07:52;;;;;;;9.09;3.05;;;;;;;7.38;91.15;101605.69;172045;28;1233;-69
2022/05/29 00:08:00;;;;;;;8.53;3.17;;;;;;;7.39;90.59;101607.38;172014;28;906;-70
2022/05/29 00:08:07;;;;;;;8.42;3.20;;;;;;;7.42;90.96;101607.34;172000;28;951;-69
2022/05/29 00:08:26;;;;;;;8.56;3.20;;;;;;;7.43;90.16;101608.22;171988;28;896;-69
2022/05/29 00:08:37;;;;;;;9.80;3.34;;;;;;;7.51;90.44;101600.28;172015;28;1212;-69
2022/05/29 00:08:44;;;;;;;13.22;3.57;;;;;;;7.51;90.24;101608.94;172067;28;2185;-69
2022/05/29 00:08:50;;;;;;;12.87;3.57;;;;;;;7.53;89.92;101603.72;172061;28;884;-69
2022/05/29 00:08:56;;;;;;;11.23;3.35;;;;;;;7.54;89.76;101602.81;172090;28;844;-69
2022/05/29 00:09:02;;;;;;;9.06;3.16;;;;;;;7.55;89.57;101601.94;172083;28;856;-69
2022/05/29 00:09:13;;;;;;;8.13;3.00;;;;;;;7.55;89.37;101604.53;171931;28;935;-69
2022/05/29 00:09:31;;;;;;;7.33;2.94;;;;;;;7.57;89.60;101594.97;171993;28;1219;-69
2022/05/29 00:09:52;;;;;;;6.41;2.86;;;;;;;7.59;89.41;101606.19;171986;28;1223;-69
2022/05/29 00:09:57;;;;;;;7.16;2.89;;;;;;;7.59;89.02;101598.38;172030;28;1211;-69
2022/05/29 00:10:07;;;;;;;7.20;2.80;;;;;;;7.60;89.30;101600.13;171942;28;967;-69
2022/05/29 00:10:14;;;;;;;7.41;2.79;;;;;;;7.59;89.06;101601.00;171979;28;1230;-69
2022/05/29 00:10:19;;;;;;;7.22;2.85;;;;;;;7.60;88.96;101608.75;171997;28;1069;-69
2022/05/29 00:10:25;;;;;;;7.63;2.90;;;;;;;7.58;88.63;101607.94;172021;28;979;-69
2022/05/29 00:10:36;;;;;;;7.87;3.00;;;;;;;7.58;88.83;101604.47;172072;28;907;-69
2022/05/29 00:10:42;;;;;;;7.92;3.00;;;;;;;7.53;89.71;101599.34;172021;28;1209;-70
2022/05/29 00:10:48;;;;;;;8.18;3.00;;;;;;;7.53;89.29;101603.72;171994;28;1038;-70
2022/05/29 00:10:55;;;;;;;7.13;2.80;;;;;;;7.48;89.61;101601.19;172032;28;1250;-69
2022/05/29 00:11:02;;;;;;;6.62;2.77;;;;;;;7.48;89.53;101606.38;172008;28;1062;-70
2022/05/29 00:11:10;;;;;;;7.93;2.90;;;;;;;7.49;89.95;101599.47;172052;28;832;-70
2022/05/29 00:11:16;;;;;;;9.63;3.07;;;;;;;7.51;89.68;101606.34;171943;28;1334;-70
2022/05/29 00:11:21;;;;;;;10.13;3.13;;;;;;;7.51;89.62;101608.06;172008;28;895;-70
2022/05/29 00:11:27;;;;;;;10.45;3.30;;;;;;;7.50;89.79;101599.44;172037;28;907;-70
2022/05/29 00:11:33;;;;;;;9.97;3.30;;;;;;;7.46;90.13;101601.22;171995;28;907;-70
2022/05/29 00:11:38;;;;;;;9.32;3.28;;;;;;;7.43;90.34;101605.63;172000;28;931;-70
2022/05/29 00:11:45;;;;;;;9.00;3.28;;;;;;;7.39;90.96;101602.19;172001;28;963;-70
2022/05/29 00:11:51;;;;;;;7.88;3.15;;;;;;;7.35;91.02;101603.13;171963;28;1078;-71
2022/05/29 00:11:56;;;;;;;7.75;3.10;;;;;;;7.32;91.19;101605.78;172034;28;1046;-70
2022/05/29 00:12:04;;;;;;;7.63;3.10;;;;;;;7.28;91.96;101604.97;172000;28;875;-70
2022/05/29 00:12:11;;;;;;;8.29;2.99;;;;;;;7.28;91.51;101601.50;171908;28;1137;-70
2022/05/29 00:12:20;;;;;;;10.66;2.96;;;;;;;7.33;90.73;101602.31;171994;28;963;-70
2022/05/29 00:12:25;;;;;;;10.97;3.00;;;;;;;7.35;90.76;101603.13;171977;28;1000;-70
2022/05/29 00:12:31;;;;;;;11.52;3.17;;;;;;;7.38;90.15;101610.88;172072;28;967;-70
2022/05/29 00:12:39;;;;;;;11.23;3.30;;;;;;;7.39;90.30;101602.19;172031;28;1100;-70
2022/05/29 00:12:44;;;;;;;8.08;3.20;;;;;;;7.41;90.80;101605.63;171988;28;946;-70
2022/05/29 00:12:50;;;;;;;10.02;3.30;;;;;;;7.41;90.09;101608.22;171998;28;879;-70
2022/05/29 00:12:55;;;;;;;10.37;3.40;;;;;;;7.42;90.59;101604.75;172019;28;1081;-70
2022/05/29 00:13:01;;;;;;;10.23;3.30;;;;;;;7.43;90.58;101603.84;172033;28;951;-70
2022/05/29 00:13:06;;;;;;;9.57;3.20;;;;;;;7.44;90.38;101605.59;172052;28;1021;-70
2022/05/29 00:13:12;;;;;;;9.13;3.15;;;;;;;7.46;90.35;101603.81;172024;28;900;-70
2022/05/29 00:13:19;;;;;;;7.47;3.17;;;;;;;7.45;89.95;101596.91;172050;28;900;-70
2022/05/29 00:13:26;;;;;;;7.04;3.10;;;;;;;7.48;89.73;101608.97;172024;28;978;-70
2022/05/29 00:13:31;;;;;;;6.23;3.10;;;;;;;7.47;90.16;101600.31;172060;28;963;-70
2022/05/29 00:13:37;;;;;;;6.60;3.20;;;;;;;7.48;90.05;101601.19;171945;28;716;-70
2022/05/29 00:13:44;;;;;;;7.77;3.50;;;;;;;7.48;90.39;101601.19;172009;28;923;-70
2022/05/29 00:13:49;;;;;;;7.56;3.50;;;;;;;7.49;89.65;101607.25;172026;28;896;-70
2022/05/29 00:14:00;;;;;;;8.25;3.55;;;;;;;7.49;90.01;101602.06;171989;28;1038;-70
2022/05/29 00:14:06;;;;;;;8.51;3.36;;;;;;;7.51;89.90;101610.66;171970;28;1222;-70
2022/05/29 00:14:12;;;;;;;8.43;3.10;;;;;;;7.51;89.77;101606.34;171940;28;1092;-70
2022/05/29 00:14:17;;;;;;;8.72;3.00;;;;;;;7.52;89.49;101607.19;172009;28;915;-70
2022/05/29 00:14:23;;;;;;;8.83;3.00;;;;;;;7.52;89.30;101602.00;171982;28;1030;-70
2022/05/29 00:14:29;;;;;;;9.27;3.00;;;;;;;7.52;89.41;101602.00;172033;28;902;-70
2022/05/29 00:14:37;;;;;;;9.48;3.08;;;;;;;7.52;89.42;101608.03;171980;28;1956;-69
2022/05/29 00:14:44;;;;;;;8.72;3.10;;;;;;;7.51;89.72;101606.34;172011;28;1144;-71
2022/05/29 00:14:50;;;;;;;8.23;3.10;;;;;;;7.47;90.04;101600.31;171950;28;1331;-70
2022/05/29 00:14:55;;;;;;;7.56;3.10;;;;;;;7.44;90.62;101605.59;172042;28;907;-70
2022/05/29 00:15:02;;;;;;;6.77;2.93;;;;;;;7.44;89.96;101604.72;172031;28;855;-69
2022/05/29 00:15:09;;;;;;;6.38;2.90;;;;;;;7.45;89.99;101603.81;172022;28;892;-70
2022/05/29 00:15:14;;;;;;;6.28;2.90;;;;;;;7.46;89.85;101609.00;172124;28;982;-70
2022/05/29 00:15:20;;;;;;;6.05;2.80;;;;;;;7.47;90.03;101602.91;172698;28;907;-70
2022/05/29 00:15:25;;;;;;;6.13;2.95;;;;;;;7.47;90.27;101602.06;172704;28;863;-70
2022/05/29 00:15:31;;;;;;;6.20;3.10;;;;;;;7.47;89.53;101600.31;172663;28;1977;-70
2022/05/29 00:15:36;;;;;;;6.68;3.15;;;;;;;7.49;90.26;101602.06;172267;28;1089;-70
2022/05/29 00:15:42;;;;;;;7.03;3.10;;;;;;;7.49;90.01;101602.88;172053;28;994;-70
2022/05/29 00:15:47;;;;;;;7.17;3.07;;;;;;;7.49;90.05;101600.28;171957;28;981;-70
2022/05/29 00:15:53;;;;;;;7.50;3.03;;;;;;;7.46;90.16;101601.22;172578;28;983;-70
2022/05/29 00:15:59;;;;;;;7.85;3.00;;;;;;;7.40;90.77;101601.34;172691;28;1073;-70
2022/05/29 00:16:04;;;;;;;8.88;3.00;;;;;;;7.35;91.35;101603.13;172685;28;875;-70
2022/05/29 00:16:10;;;;;;;9.27;3.07;;;;;;;7.32;91.64;101603.16;172687;28;919;-70
2022/05/29 00:16:16;;;;;;;8.95;3.10;;;;;;;7.29;91.87;101600.66;172693;28;966;-70
2022/05/29 00:16:21;;;;;;;9.20;3.17;;;;;;;7.25;92.14;101601.59;172565;28;1217;-70
2022/05/29 00:16:28;;;;;;;10.20;3.20;;;;;;;7.22;91.76;101599.88;172679;28;922;-70
2022/05/29 00:16:33;;;;;;;9.13;3.07;;;;;;;7.20;92.03;101602.50;172706;28;1077;-70
2022/05/29 00:16:39;;;;;;;8.45;3.00;;;;;;;7.20;91.91;101607.72;172693;28;860;-70
2022/05/29 00:16:44;;;;;;;8.60;2.90;;;;;;;7.19;92.60;101605.13;172670;28;1073;-70
2022/05/29 00:16:50;;;;;;;8.57;2.90;;;;;;;7.18;92.98;101599.06;172696;28;1299;-69
2022/05/29 00:16:56;;;;;;;7.32;2.80;;;;;;;7.15;92.54;101599.13;172667;28;946;-69
2022/05/29 00:17:03;;;;;;;8.10;2.87;;;;;;;7.15;92.74;101596.53;172710;28;797;-70
2022/05/29 00:17:09;;;;;;;8.72;2.97;;;;;;;7.16;92.91;101595.66;172594;28;1033;-69
2022/05/29 00:17:18;;;;;;;8.90;3.07;;;;;;;7.21;91.73;101603.34;171913;28;828;-69
2022/05/29 00:17:25;;;;;;;8.91;3.29;;;;;;;7.26;91.96;101601.56;171969;28;1088;-70
2022/05/29 00:17:30;;;;;;;8.68;3.28;;;;;;;7.29;91.82;101603.25;172018;28;1141;-69
2022/05/29 00:17:35;;;;;;;8.93;3.30;;;;;;;7.30;91.24;101602.34;172017;28;930;-70
2022/05/29 00:17:42;;;;;;;8.57;3.30;;;;;;;7.30;91.08;101598.03;171996;28;907;-70
2022/05/29 00:17:48;;;;;;;8.07;3.17;;;;;;;7.33;90.92;101599.72;171991;28;951;-70
2022/05/29 00:17:53;;;;;;;7.27;3.00;;;;;;;7.33;91.26;101607.50;171396;28;864;-70
2022/05/29 00:17:59;;;;;;;7.83;2.93;;;;;;;7.33;90.98;101602.31;171362;28;924;-70
2022/05/29 00:18:08;;;;;;;7.10;2.83;;;;;;;7.33;90.83;101602.31;171340;28;955;-70
2022/05/29 00:18:14;;;;;;;7.59;2.86;;;;;;;7.32;91.45;101597.97;171322;28;1082;-70
2022/05/29 00:18:20;;;;;;;8.63;2.95;;;;;;;7.33;91.48;101597.13;171628;28;1106;-69
2022/05/29 00:18:25;;;;;;;8.93;3.10;;;;;;;7.33;91.16;101603.16;171804;28;892;-70
2022/05/29 00:18:31;;;;;;;8.67;3.20;;;;;;;7.34;90.78;101598.81;172054;28;919;-70
2022/05/29 00:18:38;;;;;;;8.66;3.36;;;;;;;7.36;91.41;101601.41;171262;28;1171;-70
2022/05/29 00:18:43;;;;;;;9.20;3.40;;;;;;;7.35;91.25;101592.75;171198;28;1501;-70
2022/05/29 00:18:49;;;;;;;9.50;3.42;;;;;;;7.36;91.46;101598.81;171333;28;1079;-70
2022/05/29 00:18:55;;;;;;;10.60;3.40;;;;;;;7.37;91.13;101603.97;170579;29;1657;-70
2022/05/29 00:19:00;;;;;;;10.75;3.40;;;;;;;7.39;90.47;101597.00;170700;29;1002;-70
2022/05/29 00:19:05;;;;;;;10.97;3.33;;;;;;;7.40;91.12;101597.88;170578;29;800;-70
2022/05/29 00:19:11;;;;;;;10.18;3.28;;;;;;;7.42;90.54;101601.28;170709;29;883;-70
2022/05/29 00:19:17;;;;;;;9.57;3.10;;;;;;;7.43;90.69;101600.41;170615;29;887;-70
2022/05/29 00:19:23;;;;;;;9.55;3.10;;;;;;;7.44;90.42;101600.41;170688;29;999;-70
2022/05/29 00:19:29;;;;;;;8.38;2.98;;;;;;;7.45;90.64;101598.63;170706;29;1070;-70
2022/05/29 00:19:36;;;;;;;7.70;2.90;;;;;;;7.45;90.17;101596.91;170668;29;844;-70
2022/05/29 00:19:41;;;;;;;8.37;2.90;;;;;;;7.46;90.25;101601.22;170708;29;951;-70
2022/05/29 00:19:48;;;;;;;8.32;2.88;;;;;;;7.45;90.04;101596.91;170645;29;1050;-70
2022/05/29 00:19:54;;;;;;;8.30;2.97;;;;;;;7.44;90.29;101600.41;170659;29;895;-70
2022/05/29 00:19:59;;;;;;;9.15;3.25;;;;;;;7.43;90.60;101593.47;170715;29;919;-70
2022/05/29 00:20:06;;;;;;;11.43;3.40;;;;;;;7.43;90.40;101598.66;170657;29;1062;-70
2022/05/29 00:20:12;;;;;;;10.93;3.50;;;;;;;7.44;90.48;101595.19;170691;29;1128;-70
2022/05/29 00:20:18;;;;;;;10.87;3.53;;;;;;;7.44;90.31;101600.41;170655;29;1023;-70
2022/05/29 00:20:23;;;;;;;10.98;3.45;;;;;;;7.46;89.83;101598.59;170946;28;927;-70
2022/05/29 00:20:29;;;;;;;11.20;3.37;;;;;;;7.44;90.40;101595.19;171328;28;915;-70
2022/05/29 00:20:36;;;;;;;8.85;3.15;;;;;;;7.44;90.08;101600.41;171384;28;844;-70
2022/05/29 00:20:47;;;;;;;8.96;3.10;;;;;;;7.46;89.92;101598.59;171999;28;883;-70
2022/05/29 00:20:57;;;;;;;8.73;2.97;;;;;;;7.46;89.89;101603.81;171925;28;1253;-70
2022/05/29 00:21:05;;;;;;;9.83;3.17;;;;;;;7.45;89.60;101599.50;172046;28;1054;-70
2022/05/29 00:21:11;;;;;;;9.76;3.20;;;;;;;7.42;90.22;101599.53;172681;28;1033;-70
2022/05/29 00:21:16;;;;;;;9.50;3.17;;;;;;;7.42;90.72;101599.53;172286;28;887;-70
2022/05/29 00:21:23;;;;;;;8.82;3.20;;;;;;;7.36;90.69;101597.06;172085;28;907;-70
2022/05/29 00:21:34;;;;;;;7.20;3.05;;;;;;;7.33;90.72;101597.13;172116;28;887;-70
2022/05/29 00:21:40;;;;;;;8.46;3.00;;;;;;;7.35;91.21;101600.53;172581;28;1513;-70
2022/05/29 00:21:45;;;;;;;8.53;3.00;;;;;;;7.32;91.56;101597.97;172647;28;1081;-70
2022/05/29 00:21:52;;;;;;;9.27;3.08;;;;;;;7.29;91.72;101595.47;172664;28;848;-70
2022/05/29 00:21:58;;;;;;;11.33;3.10;;;;;;;7.28;91.35;101598.91;172694;28;1014;-70
2022/05/29 00:22:04;;;;;;;10.95;3.08;;;;;;;7.30;91.50;101591.97;172662;28;951;-70
2022/05/29 00:22:14;;;;;;;9.55;3.00;;;;;;;7.31;91.09;101594.53;172572;28;1105;-70
2022/05/29 00:22:22;;;;;;;9.84;3.04;;;;;;;7.33;90.54;101597.13;172666;28;1121;-70
2022/05/29 00:22:31;;;;;;;8.67;3.03;;;;;;;7.36;91.05;101601.41;171724;28;847;-70
2022/05/29 00:22:38;;;;;;;8.73;3.07;;;;;;;7.38;90.89;101600.47;172583;28;946;-70
2022/05/29 00:22:44;;;;;;;8.58;3.02;;;;;;;7.39;90.34;101597.00;172695;28;871;-70
2022/05/29 00:22:49;;;;;;;8.23;3.03;;;;;;;7.38;90.44;101600.47;172590;28;1037;-70
2022/05/29 00:22:55;;;;;;;7.43;3.00;;;;;;;7.38;90.58;101600.47;172604;28;1219;-70
2022/05/29 00:23:01;;;;;;;6.37;3.10;;;;;;;7.38;90.05;101600.47;172727;28;840;-70
2022/05/29 00:23:07;;;;;;;6.13;3.05;;;;;;;7.39;90.20;101596.16;172666;28;958;-70
2022/05/29 00:23:12;;;;;;;6.07;3.10;;;;;;;7.39;90.73;101597.00;172723;28;895;-70
2022/05/29 00:23:19;;;;;;;6.30;3.00;;;;;;;7.38;90.40;101595.28;172705;28;931;-70
2022/05/29 00:23:27;;;;;;;7.30;3.00;;;;;;;7.39;90.64;101591.81;172673;28;963;-70
2022/05/29 00:23:42;;;;;;;8.40;3.04;;;;;;;7.39;90.82;101594.41;172599;28;1097;-70
2022/05/29 00:23:50;;;;;;;10.07;3.14;;;;;;;7.42;90.50;101594.34;172670;28;1219;-70
2022/05/29 00:23:56;;;;;;;12.00;3.40;;;;;;;7.42;90.23;101594.34;172681;28;899;-70
2022/05/29 00:24:02;;;;;;;12.55;3.53;;;;;;;7.43;89.79;101588.28;172700;28;1100;-70
2022/05/29 00:24:09;;;;;;;12.65;3.55;;;;;;;7.43;90.11;101598.66;172448;28;1156;-70
2022/05/29 00:24:15;;;;;;;12.43;3.50;;;;;;;7.44;90.33;101597.78;172090;28;867;-70
2022/05/29 00:24:21;;;;;;;10.30;3.40;;;;;;;7.43;89.92;101593.47;172056;28;919;-70
2022/05/29 00:24:26;;;;;;;10.93;3.30;;;;;;;7.44;90.47;101600.41;172066;28;958;-70
2022/05/29 00:24:33;;;;;;;10.40;3.13;;;;;;;7.44;90.08;101595.19;171962;28;1295;-70
2022/05/29 00:24:39;;;;;;;9.93;3.03;;;;;;;7.45;89.71;101596.91;171995;28;959;-70
2022/05/29 00:24:47;;;;;;;9.78;3.10;;;;;;;7.46;90.14;101595.19;171941;28;1149;-69
2022/05/29 00:24:53;;;;;;;10.73;3.13;;;;;;;7.46;90.04;101592.59;171998;28;1070;-70
2022/05/29 00:24:58;;;;;;;10.77;3.15;;;;;;;7.46;90.09;101588.22;172045;28;919;-70
2022/05/29 00:25:10;;;;;;;10.63;3.13;;;;;;;7.46;89.91;101592.59;171984;28;1271;-69
2022/05/29 00:25:15;;;;;;;10.95;3.13;;;;;;;7.45;89.57;101591.72;171966;28;1255;-70
2022/05/29 00:25:21;;;;;;;11.37;3.17;;;;;;;7.44;90.25;101597.78;172026;28;947;-70
2022/05/29 00:25:26;;;;;;;9.15;3.15;;;;;;;7.44;90.35;101595.19;172000;28;907;-70
2022/05/29 00:25:33;;;;;;;8.53;3.23;;;;;;;7.45;89.76;101596.91;172031;28;899;-70
2022/05/29 00:25:38;;;;;;;8.94;3.34;;;;;;;7.45;90.33;101589.13;171998;28;995;-70
2022/05/29 00:25:48;;;;;;;8.30;3.30;;;;;;;7.45;89.52;101591.72;171964;28;1041;-70
2022/05/29 00:25:55;;;;;;;7.93;3.19;;;;;;;7.44;89.67;101592.59;171966;28;1148;-70
2022/05/29 00:26:00;;;;;;;8.16;3.06;;;;;;;7.43;90.31;101593.47;172052;28;916;-70
2022/05/29 00:26:06;;;;;;;8.03;2.90;;;;;;;7.43;90.09;101590.88;172006;28;848;-70
2022/05/29 00:26:11;;;;;;;7.35;2.85;;;;;;;7.43;89.94;101593.47;171998;28;935;-70
2022/05/29 00:26:18;;;;;;;7.43;2.90;;;;;;;7.44;89.76;101594.34;171990;28;832;-69
2022/05/29 00:26:23;;;;;;;6.30;2.90;;;;;;;7.44;89.81;101587.41;171963;28;2172;-70
2022/05/29 00:26:29;;;;;;;6.63;2.95;;;;;;;7.44;89.63;101592.59;172030;28;935;-69
2022/05/29 00:26:34;;;;;;;6.97;3.20;;;;;;;7.44;89.93;101590.00;172068;28;903;-69
2022/05/29 00:26:41;;;;;;;6.93;3.20;;;;;;;7.44;90.10;101590.00;172061;28;836;-70
2022/05/29 00:26:46;;;;;;;7.05;3.30;;;;;;;7.45;90.00;101596.03;172004;28;915;-69
2022/05/29 00:26:53;;;;;;;7.75;3.55;;;;;;;7.44;89.84;101595.19;172069;28;927;-69
2022/05/29 00:26:59;;;;;;;7.75;3.53;;;;;;;7.44;90.21;101590.00;172095;28;926;-69
2022/05/29 00:27:04;;;;;;;6.82;3.25;;;;;;;7.45;89.67;101596.91;172064;28;919;-70
2022/05/29 00:27:11;;;;;;;7.40;3.17;;;;;;;7.44;89.81;101586.53;172061;28;1009;-70
2022/05/29 00:27:17;;;;;;;7.07;2.90;;;;;;;7.43;90.29;101590.03;172103;28;978;-70
2022/05/29 00:27:23;;;;;;;7.17;2.67;;;;;;;7.44;90.20;101590.00;172094;28;880;-70
2022/05/29 00:27:29;;;;;;;7.97;2.72;;;;;;;7.43;90.31;101588.28;172111;28;1016;-70
2022/05/29 00:27:35;;;;;;;8.23;2.80;;;;;;;7.44;90.31;101591.72;172079;28;1041;-70
2022/05/29 00:27:40;;;;;;;7.47;2.80;;;;;;;7.44;90.09;101589.13;172067;28;887;-70
2022/05/29 00:27:46;;;;;;;7.72;2.85;;;;;;;7.44;89.93;101594.34;172045;28;920;-69
2022/05/29 00:27:51;;;;;;;7.90;2.93;;;;;;;7.44;89.67;101591.72;172045;28;848;-70
2022/05/29 00:27:57;;;;;;;8.27;3.10;;;;;;;7.44;89.59;101587.41;172061;28;1113;-70
2022/05/29 00:28:02;;;;;;;8.00;3.10;;;;;;;7.44;89.80;101583.94;172133;28;1080;-70
2022/05/29 00:28:08;;;;;;;9.15;3.20;;;;;;;7.43;89.69;101585.66;172113;28;804;-70
2022/05/29 00:28:13;;;;;;;9.63;3.33;;;;;;;7.41;90.06;101590.06;172098;28;859;-70
2022/05/29 00:28:20;;;;;;;10.02;3.33;;;;;;;7.36;90.77;101589.28;172042;28;852;-70
2022/05/29 00:28:26;;;;;;;9.74;3.14;;;;;;;7.32;91.14;101590.19;172061;28;915;-70
2022/05/29 00:28:33;;;;;;;10.47;3.20;;;;;;;7.26;91.92;101591.19;171938;28;971;-70
2022/05/29 00:28:39;;;;;;;10.42;3.26;;;;;;;7.21;91.89;101593.84;172003;28;997;-70
2022/05/29 00:28:46;;;;;;;11.02;3.16;;;;;;;7.18;92.41;101588.69;172003;28;919;-70
2022/05/29 00:28:52;;;;;;;10.84;3.20;;;;;;;7.19;91.86;101589.56;171878;28;1137;-70
2022/05/29 00:28:57;;;;;;;10.40;3.13;;;;;;;7.20;91.51;101589.53;171999;28;943;-69
2022/05/29 00:29:03;;;;;;;8.93;3.00;;;;;;;7.24;92.01;101586.88;172058;28;879;-69
2022/05/29 00:29:09;;;;;;;8.57;3.10;;;;;;;7.24;91.08;101587.72;171936;28;1081;-70
2022/05/29 00:29:15;;;;;;;8.10;3.13;;;;;;;7.26;90.93;101588.59;172022;28;1062;-70
2022/05/29 00:29:22;;;;;;;8.28;3.08;;;;;;;7.29;91.00;101588.50;172028;28;892;-70
2022/05/29 00:29:28;;;;;;;8.78;3.10;;;;;;;7.29;91.37;101588.50;171998;28;1038;-70
2022/05/29 00:29:35;;;;;;;8.87;2.97;;;;;;;7.31;91.29;101591.06;172057;28;946;-70
2022/05/29 00:29:41;;;;;;;8.97;2.83;;;;;;;7.31;90.45;101588.47;171993;28;971;-70
2022/05/29 00:29:46;;;;;;;9.97;3.00;;;;;;;7.32;90.67;101585.00;171971;28;1034;-70
2022/05/29 00:29:52;;;;;;;9.02;3.00;;;;;;;7.34;90.37;101593.63;171959;28;912;-70
2022/05/29 00:29:57;;;;;;;8.77;3.07;;;;;;;7.34;90.86;101591.03;171894;28;1358;-70
2022/05/29 00:30:07;;;;;;;8.73;3.10;;;;;;;7.34;90.92;101591.91;172046;28;990;-69
2022/05/29 00:30:14;;;;;;;7.95;3.09;;;;;;;7.36;90.76;101586.69;171835;28;2812;-69
2022/05/29 00:30:19;;;;;;;7.20;3.00;;;;;;;7.37;90.77;101584.94;171992;28;974;-70
2022/05/29 00:30:25;;;;;;;7.72;3.08;;;;;;;7.36;90.51;101589.28;171977;28;1054;-70
2022/05/29 00:30:30;;;;;;;8.33;3.17;;;;;;;7.37;90.40;101587.53;172032;28;991;-70
2022/05/29 00:30:36;;;;;;;8.40;3.10;;;;;;;7.37;90.84;101588.41;172005;28;927;-70
2022/05/29 00:30:41;;;;;;;9.23;3.13;;;;;;;7.38;90.33;101587.50;172001;28;995;-69
2022/05/29 00:30:47;;;;;;;9.75;3.17;;;;;;;7.37;90.09;101588.41;171995;28;872;-70
2022/05/29 00:30:53;;;;;;;9.65;3.05;;;;;;;7.38;89.97;101587.50;171953;28;915;-70
2022/05/29 00:30:58;;;;;;;9.20;3.00;;;;;;;7.36;90.24;101586.69;171885;28;1428;-70
2022/05/29 00:31:04;;;;;;;10.55;3.05;;;;;;;7.34;90.76;101591.03;172047;28;995;-70
2022/05/29 00:31:11;;;;;;;10.87;3.23;;;;;;;7.34;90.97;101588.44;172001;28;1183;-70
2022/05/29 00:31:16;;;;;;;8.80;3.10;;;;;;;7.35;90.53;101582.34;171991;28;1141;-70
2022/05/29 00:31:21;;;;;;;10.05;3.22;;;;;;;7.35;90.87;101587.53;172003;28;1125;-70
2022/05/29 00:31:27;;;;;;;9.60;3.20;;;;;;;7.37;90.08;101593.59;172004;28;788;-70